Tulsa International Airport
KTUL : now visible

Aeroporto :











RITROVATECI SU...

 
LOGIN :

Iscrizione | Disclaimer

   EN    FR    IT 

 









Sommario :    VFR   VFR Marginale   IFR   IFR Intensivo   IFR Molto Intensivo
Visibilità : 
Base nubi : 
>= 8 km
>= 3000ft
5 / 8 km
1000 / 3000 ft
1500m / 5 km
500 / 1000 ft
800 / 1500m
200 / 500 ft
< 800m
< 200 ft
Simboli :   Temporali  Nebbia  Neve Forte  Precipitazioni Forti  Vento > 20 kt






- Altitudine del aeroporto : 677 ft
- Codice IATA : TUL


KTUL - Tulsa International

ULTIMO METAR :
  • 311953Z 09011G18KT 10SM FEW250 29/16 A3015 RMK AO2 SLP202 T02890156

METARs OBSOLETI :
  • 311853Z 12010KT 10SM FEW250 29/16 A3017 RMK AO2 SLP208 T02890156
  • 311753Z 18010KT 10SM FEW250 28/14 A3018 RMK AO2 SLP213 T02830139 10283 20178 56012

TAF KTUL
Valido dal 31 a 18 ore il 01 a 18 ore UTC


311721Z 3118/0118 15008KT P6SM SKC
FM010100 15006KT P6SM SCT250
FM011400 17010KT P6SM SCT250
FIR KZKC / America del Nord



MetMap, La meteo Aeronautica in un colpo d'occhio ! - Copyright ORBIFLY Dicembre 2007 - Disclaimer

ORBIFLY MET'MAP TEAM :

Programmazione e sviluppo : Alexandra Zaïnal
Concezione : Baudouin d'Aumeries
Aiuto per la programmazione : Marc-Olivier Méhu
Supporto tecnico e logistico : Manuel Goepfert
Aiuto per la traduzione : Arnaldo La Scala

Contatto : metmap@orbifly.com




FONTI E CREDITI :

   NOAA       Earth
Advisory